createdAt,value
2018-03-27T00:00:36.473Z,0
2018-03-27T00:01:36.450Z,0
2018-03-27T00:02:36.172Z,0
2018-03-27T00:03:36.147Z,0
2018-03-27T00:04:36.363Z,0
2018-03-27T00:05:36.375Z,0
2018-03-27T00:06:36.301Z,0
2018-03-27T00:07:36.285Z,0
2018-03-27T00:08:36.244Z,0
2018-03-27T00:09:36.232Z,0
2018-03-27T00:10:36.247Z,0
2018-03-27T00:11:36.162Z,0
2018-03-27T00:12:36.134Z,0
2018-03-27T00:13:35.854Z,0
2018-03-27T00:14:35.830Z,0
2018-03-27T00:15:36.052Z,0
2018-03-27T00:16:36.090Z,0
2018-03-27T00:17:35.986Z,0
2018-03-27T00:18:35.711Z,0
2018-03-27T00:19:35.693Z,0
2018-03-27T00:20:35.655Z,0
2018-03-27T00:21:35.621Z,0
2018-03-27T00:22:35.844Z,0
2018-03-27T00:23:35.819Z,0
2018-03-27T00:24:35.782Z,0
2018-03-27T00:25:35.516Z,0
2018-03-27T00:26:35.229Z,0
2018-03-27T00:27:35.700Z,0
2018-03-27T00:28:35.713Z,0
2018-03-27T00:29:35.642Z,0
2018-03-27T00:30:35.119Z,0
2018-03-27T00:31:35.597Z,0
2018-03-27T00:32:35.556Z,0
2018-03-27T00:33:35.274Z,0
2018-03-27T00:34:35.551Z,0
2018-03-27T00:35:35.460Z,0
2018-03-27T00:36:35.433Z,0
2018-03-27T00:37:34.907Z,0
2018-03-27T00:38:35.374Z,0
2018-03-27T00:39:35.347Z,0
2018-03-27T00:40:35.319Z,0
2018-03-27T00:41:35.291Z,0
2018-03-27T00:42:35.271Z,0
2018-03-27T00:43:34.987Z,0
2018-03-27T00:44:35.203Z,0
2018-03-27T00:45:34.928Z,0
2018-03-27T00:46:34.898Z,0
2018-03-27T00:47:34.619Z,0
2018-03-27T00:48:35.084Z,0
2018-03-27T00:49:35.057Z,0
2018-03-27T00:50:35.031Z,0
2018-03-27T00:51:35.004Z,0
2018-03-27T00:52:34.962Z,0
2018-03-27T00:53:34.944Z,0
2018-03-27T00:54:34.928Z,0
2018-03-27T00:55:34.634Z,0
2018-03-27T00:56:34.612Z,0
2018-03-27T00:57:34.823Z,0
2018-03-27T00:58:34.051Z,0
2018-03-27T00:59:34.519Z,0
2018-03-27T01:00:34.735Z,0
2018-03-27T01:01:34.460Z,0
2018-03-27T01:02:34.682Z,0
2018-03-27T01:03:34.653Z,0
2018-03-27T01:04:34.375Z,0
2018-03-27T01:05:34.356Z,0
2018-03-27T01:06:34.567Z,0
2018-03-27T01:07:34.287Z,0
2018-03-27T01:08:34.505Z,0
2018-03-27T01:09:34.479Z,0
2018-03-27T01:10:34.208Z,0
2018-03-27T01:11:34.421Z,0
2018-03-27T01:12:34.392Z,0
2018-03-27T01:13:34.367Z,0
2018-03-27T01:14:34.334Z,0
2018-03-27T01:15:34.057Z,0
2018-03-27T01:16:34.284Z,0
2018-03-27T01:17:34.302Z,0
2018-03-27T01:18:34.224Z,0
2018-03-27T01:19:33.688Z,0
2018-03-27T01:20:33.919Z,0
2018-03-27T01:21:34.132Z,0
2018-03-27T01:22:34.101Z,0
2018-03-27T01:23:33.822Z,0
2018-03-27T01:24:33.802Z,0
2018-03-27T01:25:33.764Z,0
2018-03-27T01:26:33.995Z,0
2018-03-27T01:27:33.963Z,0
2018-03-27T01:28:33.924Z,0
2018-03-27T01:29:33.898Z,0
2018-03-27T01:30:33.620Z,0
2018-03-27T01:31:33.838Z,0
2018-03-27T01:32:33.802Z,0
2018-03-27T01:33:33.776Z,0
2018-03-27T01:34:33.504Z,0
2018-03-27T01:35:33.728Z,0
2018-03-27T01:36:33.695Z,0
2018-03-27T01:37:33.663Z,0
2018-03-27T01:38:33.637Z,0
2018-03-27T01:39:33.104Z,0
2018-03-27T01:40:33.569Z,0
2018-03-27T01:41:33.540Z,0
2018-03-27T01:42:33.266Z,0
2018-03-27T01:43:33.240Z,0
2018-03-27T01:44:32.960Z,0
2018-03-27T01:45:33.178Z,0
2018-03-27T01:46:33.411Z,0
2018-03-27T01:47:33.363Z,0
2018-03-27T01:48:33.348Z,0
2018-03-27T01:49:33.310Z,0
2018-03-27T01:50:33.028Z,0
2018-03-27T01:51:33.249Z,0
2018-03-27T01:52:32.970Z,0
2018-03-27T01:53:33.192Z,0
2018-03-27T01:54:32.675Z,0
2018-03-27T01:55:33.134Z,0
2018-03-27T01:56:32.876Z,0
2018-03-27T01:57:32.828Z,0
2018-03-27T01:58:33.042Z,0
2018-03-27T01:59:33.021Z,0
2018-03-27T02:00:32.742Z,0
2018-03-27T02:01:32.953Z,0
2018-03-27T02:02:32.929Z,0
2018-03-27T02:03:32.896Z,0
2018-03-27T02:04:32.875Z,0
2018-03-27T02:05:32.837Z,0
2018-03-27T02:06:32.805Z,0
2018-03-27T02:07:32.777Z,0
2018-03-27T02:08:32.749Z,0
2018-03-27T02:09:32.472Z,0
2018-03-27T02:10:32.692Z,0
2018-03-27T02:11:32.660Z,0
2018-03-27T02:12:32.380Z,0
2018-03-27T02:13:32.356Z,0
2018-03-27T02:14:32.350Z,0
2018-03-27T02:15:32.294Z,0
2018-03-27T02:16:32.518Z,0
2018-03-27T02:17:32.234Z,0
2018-03-27T02:18:32.204Z,0
2018-03-27T02:19:32.438Z,0
2018-03-27T02:20:32.392Z,0
2018-03-27T02:21:32.116Z,0
2018-03-27T02:22:32.201Z,0
2018-03-27T02:23:32.061Z,0
2018-03-27T02:24:32.031Z,0
2018-03-27T02:25:32.008Z,0
2018-03-27T02:26:31.734Z,0
2018-03-27T02:27:32.187Z,0
2018-03-27T02:28:32.166Z,0
2018-03-27T02:29:31.890Z,0
2018-03-27T02:30:31.860Z,0
2018-03-27T02:31:32.078Z,0
2018-03-27T02:32:32.047Z,0
2018-03-27T02:33:32.026Z,0
2018-03-27T02:34:31.997Z,0
2018-03-27T02:35:31.962Z,0
2018-03-27T02:36:31.939Z,0
2018-03-27T02:37:31.902Z,0
2018-03-27T02:38:31.885Z,0
2018-03-27T02:39:31.591Z,0
2018-03-27T02:40:31.816Z,0
2018-03-27T02:41:31.804Z,0
2018-03-27T02:42:31.509Z,0
2018-03-27T02:43:31.481Z,0
2018-03-27T02:44:31.486Z,0
2018-03-27T02:45:31.171Z,0
2018-03-27T02:46:31.393Z,0
2018-03-27T02:47:31.619Z,0
2018-03-27T02:48:31.591Z,0
2018-03-27T02:49:31.548Z,0
2018-03-27T02:50:31.530Z,0
2018-03-27T02:51:31.504Z,0
2018-03-27T02:52:31.461Z,0
2018-03-27T02:53:31.508Z,0
2018-03-27T02:54:31.162Z,0
2018-03-27T02:55:31.386Z,0
2018-03-27T02:56:31.368Z,0
2018-03-27T02:57:31.075Z,0
2018-03-27T02:58:31.286Z,0
2018-03-27T02:59:31.007Z,0
2018-03-27T03:00:30.739Z,0
2018-03-27T03:01:31.210Z,0
2018-03-27T03:02:31.169Z,0
2018-03-27T03:03:31.148Z,0
2018-03-27T03:04:31.120Z,0
2018-03-27T03:05:31.085Z,0
2018-03-27T03:06:30.813Z,0
2018-03-27T03:07:30.771Z,0
2018-03-27T03:08:30.744Z,0
2018-03-27T03:09:30.963Z,0
2018-03-27T03:10:30.932Z,0
2018-03-27T03:11:30.653Z,0
2018-03-27T03:12:30.878Z,0
2018-03-27T03:13:30.843Z,0
2018-03-27T03:14:30.828Z,0
2018-03-27T03:15:30.569Z,0
2018-03-27T03:16:30.750Z,0
2018-03-27T03:17:30.726Z,0
2018-03-27T03:18:30.442Z,0
2018-03-27T03:19:30.668Z,0
2018-03-27T03:20:30.644Z,0
2018-03-27T03:21:30.613Z,0
2018-03-27T03:22:30.579Z,0
2018-03-27T03:23:30.551Z,0
2018-03-27T03:24:30.265Z,0
2018-03-27T03:25:30.490Z,0
2018-03-27T03:26:30.207Z,0
2018-03-27T03:27:30.190Z,0
2018-03-27T03:28:30.482Z,0
2018-03-27T03:29:30.128Z,0
2018-03-27T03:30:30.095Z,0
2018-03-27T03:31:30.316Z,0
2018-03-27T03:32:30.279Z,0
2018-03-27T03:33:29.999Z,0
2018-03-27T03:34:30.216Z,0
2018-03-27T03:35:30.189Z,0
2018-03-27T03:36:30.160Z,0
2018-03-27T03:37:29.883Z,0
2018-03-27T03:38:29.851Z,0
2018-03-27T03:39:30.071Z,0
2018-03-27T03:40:30.070Z,0
2018-03-27T03:41:30.013Z,0
2018-03-27T03:42:29.993Z,0
2018-03-27T03:43:29.949Z,0
2018-03-27T03:44:29.682Z,0
2018-03-27T03:45:29.893Z,0
2018-03-27T03:46:29.610Z,0
2018-03-27T03:47:29.831Z,0
2018-03-27T03:48:29.800Z,0
2018-03-27T03:49:29.778Z,0
2018-03-27T03:50:29.498Z,0
2018-03-27T03:51:29.723Z,0
2018-03-27T03:52:29.720Z,0
2018-03-27T03:53:29.654Z,0
2018-03-27T03:54:29.125Z,0
2018-03-27T03:55:29.632Z,0
2018-03-27T03:56:29.312Z,0
2018-03-27T03:57:29.277Z,0
2018-03-27T03:58:29.505Z,0
2018-03-27T03:59:28.973Z,0
2018-03-27T04:00:29.637Z,0
2018-03-27T04:01:28.915Z,0
2018-03-27T04:02:29.381Z,0
2018-03-27T04:03:29.361Z,0
2018-03-27T04:04:29.326Z,0
2018-03-27T04:05:28.809Z,0
2018-03-27T04:06:29.265Z,0
2018-03-27T04:07:29.231Z,0
2018-03-27T04:08:28.955Z,0
2018-03-27T04:09:29.173Z,0
2018-03-27T04:10:29.159Z,0
2018-03-27T04:11:29.208Z,0
2018-03-27T04:12:29.109Z,0
2018-03-27T04:13:28.816Z,0
2018-03-27T04:14:28.776Z,0
2018-03-27T04:15:29.032Z,0
2018-03-27T04:16:28.983Z,0
2018-03-27T04:17:28.187Z,0
2018-03-27T04:18:28.904Z,0
2018-03-27T04:19:28.622Z,0
2018-03-27T04:20:28.851Z,0
2018-03-27T04:21:28.820Z,0
2018-03-27T04:22:28.787Z,0
2018-03-27T04:23:28.263Z,0
2018-03-27T04:24:28.478Z,0
2018-03-27T04:25:28.714Z,0
2018-03-27T04:26:28.680Z,0
2018-03-27T04:27:28.382Z,0
2018-03-27T04:28:28.612Z,0
2018-03-27T04:29:28.325Z,0
2018-03-27T04:30:28.547Z,0
2018-03-27T04:31:28.511Z,0
2018-03-27T04:32:28.237Z,0
2018-03-27T04:33:28.209Z,0
2018-03-27T04:34:28.180Z,0
2018-03-27T04:35:28.396Z,0
2018-03-27T04:36:28.373Z,0
2018-03-27T04:37:28.335Z,0
2018-03-27T04:38:28.302Z,0
2018-03-27T04:39:28.284Z,0
2018-03-27T04:40:28.243Z,0
2018-03-27T04:41:27.966Z,0
2018-03-27T04:42:28.197Z,0
2018-03-27T04:43:28.163Z,0
2018-03-27T04:44:27.874Z,4
2018-03-27T04:45:28.106Z,4
2018-03-27T04:46:28.072Z,0
2018-03-27T04:47:28.039Z,4
2018-03-27T04:48:28.002Z,4
2018-03-27T04:49:28.018Z,4
2018-03-27T04:50:27.701Z,4
2018-03-27T04:51:27.663Z,4
2018-03-27T04:52:27.690Z,4
2018-03-27T04:53:27.849Z,8
2018-03-27T04:54:27.940Z,12
2018-03-27T04:55:28.320Z,16
2018-03-27T04:56:27.763Z,16
2018-03-27T04:57:27.734Z,20
2018-03-27T04:58:27.704Z,24
2018-03-27T04:59:27.421Z,24
2018-03-27T05:00:26.899Z,32
2018-03-27T05:01:27.123Z,36
2018-03-27T05:02:27.148Z,44
2018-03-27T05:03:27.304Z,48
2018-03-27T05:04:27.272Z,60
2018-03-27T05:05:27.505Z,72
2018-03-27T05:06:27.463Z,80
2018-03-27T05:07:26.929Z,92
2018-03-27T05:08:27.151Z,108
2018-03-27T05:09:27.128Z,124
2018-03-27T05:10:27.092Z,140
2018-03-27T05:11:27.312Z,160
2018-03-27T05:12:26.784Z,180
2018-03-27T05:13:27.002Z,200
2018-03-27T05:14:26.965Z,228
2018-03-27T05:15:27.191Z,252
2018-03-27T05:16:27.160Z,284
2018-03-27T05:17:27.129Z,316
2018-03-27T05:18:26.849Z,348
2018-03-27T05:19:27.071Z,384
2018-03-27T05:20:27.049Z,420
2018-03-27T05:21:27.008Z,456
2018-03-27T05:22:26.975Z,496
2018-03-27T05:23:26.758Z,536
2018-03-27T05:24:26.666Z,576
2018-03-27T05:25:26.897Z,624
2018-03-27T05:26:26.919Z,668
2018-03-27T05:27:26.825Z,712
2018-03-27T05:28:26.793Z,764
2018-03-27T05:29:26.266Z,812
2018-03-27T05:30:26.737Z,864
2018-03-27T05:31:26.703Z,916
2018-03-27T05:32:26.180Z,972
2018-03-27T05:33:26.148Z,1032
2018-03-27T05:34:26.615Z,1084
2018-03-27T05:35:26.588Z,1144
2018-03-27T05:36:26.558Z,1204
2018-03-27T05:37:26.526Z,1260
2018-03-27T05:38:26.498Z,1320
2018-03-27T05:39:26.473Z,1384
2018-03-27T05:40:26.494Z,1448
2018-03-27T05:41:26.403Z,1512
2018-03-27T05:42:26.127Z,1576
2018-03-27T05:43:26.348Z,1640
2018-03-27T05:44:26.318Z,1704
2018-03-27T05:45:26.034Z,1768
2018-03-27T05:46:25.998Z,1832
2018-03-27T05:47:25.724Z,1896
2018-03-27T05:48:25.938Z,1964
2018-03-27T05:49:26.154Z,2032
2018-03-27T05:50:26.135Z,2096
2018-03-27T05:51:25.843Z,2164
2018-03-27T05:52:26.065Z,2240
2018-03-27T05:53:26.033Z,2312
2018-03-27T05:54:25.532Z,2392
2018-03-27T05:55:25.979Z,2476
2018-03-27T05:56:25.946Z,2580
2018-03-27T05:57:25.723Z,2684
2018-03-27T05:58:25.885Z,2772
2018-03-27T05:59:26.955Z,2868
2018-03-27T06:00:25.799Z,2984
2018-03-27T06:01:25.299Z,3104
2018-03-27T06:02:25.761Z,3220
2018-03-27T06:03:25.483Z,3324
2018-03-27T06:04:25.470Z,3436
2018-03-27T06:05:25.698Z,3536
2018-03-27T06:06:25.644Z,3648
2018-03-27T06:07:25.629Z,3760
2018-03-27T06:08:25.398Z,3892
2018-03-27T06:09:25.305Z,4000
2018-03-27T06:10:25.278Z,4140
2018-03-27T06:11:25.250Z,4252
2018-03-27T06:12:25.216Z,4372
2018-03-27T06:13:25.442Z,4496
2018-03-27T06:14:25.175Z,4644
2018-03-27T06:15:25.378Z,4800
2018-03-27T06:16:25.094Z,4968
2018-03-27T06:17:25.070Z,5140
2018-03-27T06:18:25.288Z,5384
2018-03-27T06:19:25.024Z,5644
2018-03-27T06:20:25.222Z,5872
2018-03-27T06:21:24.945Z,6128
2018-03-27T06:22:25.166Z,6416
2018-03-27T06:23:25.132Z,6676
2018-03-27T06:24:25.109Z,6944
2018-03-27T06:25:24.834Z,7136
2018-03-27T06:26:25.156Z,7360
2018-03-27T06:27:25.105Z,7528
2018-03-27T06:28:25.007Z,7740
2018-03-27T06:29:24.458Z,7844
2018-03-27T06:30:24.930Z,7932
2018-03-27T06:31:24.908Z,8040
2018-03-27T06:32:24.871Z,8100
2018-03-27T06:33:24.845Z,8160
2018-03-27T06:34:24.321Z,8172
2018-03-27T06:35:24.783Z,8184
2018-03-27T06:36:24.567Z,8212
2018-03-27T06:37:24.491Z,8192
2018-03-27T06:38:24.464Z,8196
2018-03-27T06:39:24.774Z,8212
2018-03-27T06:40:24.155Z,8172
2018-03-27T06:41:24.614Z,8364
2018-03-27T06:42:24.711Z,8408
2018-03-27T06:43:23.853Z,8492
2018-03-27T06:44:24.642Z,8552
2018-03-27T06:45:24.302Z,8732
2018-03-27T06:46:23.980Z,8852
2018-03-27T06:47:24.208Z,8920
2018-03-27T06:48:24.167Z,8956
2018-03-27T06:49:24.390Z,8880
2018-03-27T06:50:24.368Z,8820
2018-03-27T06:51:24.078Z,8668
2018-03-27T06:52:24.307Z,8632
2018-03-27T06:53:24.034Z,8716
2018-03-27T06:54:24.279Z,8632
2018-03-27T06:55:24.235Z,8640
2018-03-27T06:56:24.322Z,8516
2018-03-27T06:57:23.667Z,8508
2018-03-27T06:58:24.143Z,8352
2018-03-27T06:59:23.615Z,8224
2018-03-27T07:00:24.085Z,8236
2018-03-27T07:01:23.880Z,8188
2018-03-27T07:02:23.818Z,8204
2018-03-27T07:03:24.047Z,8288
2018-03-27T07:04:23.988Z,8324
2018-03-27T07:05:23.958Z,8504
2018-03-27T07:06:23.697Z,8628
2018-03-27T07:07:23.651Z,8796
2018-03-27T07:08:23.621Z,9060
2018-03-27T07:09:23.382Z,9232
2018-03-27T07:10:23.827Z,9496
2018-03-27T07:11:23.803Z,9684
2018-03-27T07:12:24.000Z,9984
2018-03-27T07:13:23.534Z,10196
2018-03-27T07:14:23.775Z,10472
2018-03-27T07:15:23.436Z,10860
2018-03-27T07:16:23.443Z,11316
2018-03-27T07:17:23.630Z,11992
2018-03-27T07:18:23.423Z,12804
2018-03-27T07:19:23.616Z,13420
2018-03-27T07:20:23.337Z,13884
2018-03-27T07:21:23.667Z,14152
2018-03-27T07:22:23.508Z,14244
2018-03-27T07:23:23.462Z,14124
2018-03-27T07:24:23.178Z,13968
2018-03-27T07:25:22.660Z,13680
2018-03-27T07:26:23.388Z,13004
2018-03-27T07:27:23.361Z,12712
2018-03-27T07:28:23.327Z,12312
2018-03-27T07:29:23.059Z,12188
2018-03-27T07:30:23.276Z,12236
2018-03-27T07:31:23.396Z,12460
2018-03-27T07:32:22.973Z,12744
2018-03-27T07:33:23.202Z,12828
2018-03-27T07:34:23.175Z,12572
2018-03-27T07:35:22.898Z,12436
2018-03-27T07:36:23.143Z,12244
2018-03-27T07:37:22.849Z,12104
2018-03-27T07:38:23.080Z,11932
2018-03-27T07:39:23.062Z,11828
2018-03-27T07:40:23.024Z,11880
2018-03-27T07:41:22.996Z,11848
2018-03-27T07:42:22.968Z,11992
2018-03-27T07:43:23.182Z,12240
2018-03-27T07:44:22.513Z,12508
2018-03-27T07:45:22.647Z,12812
2018-03-27T07:46:22.615Z,13164
2018-03-27T07:47:22.848Z,13780
2018-03-27T07:48:22.824Z,14472
2018-03-27T07:49:22.792Z,14956
2018-03-27T07:50:22.516Z,15356
2018-03-27T07:51:22.491Z,15296
2018-03-27T07:52:22.714Z,15152
2018-03-27T07:53:22.442Z,15504
2018-03-27T07:54:22.416Z,15920
2018-03-27T07:55:22.404Z,16288
2018-03-27T07:56:22.365Z,16436
2018-03-27T07:57:22.093Z,16376
2018-03-27T07:58:22.332Z,16096
2018-03-27T07:59:22.295Z,15876
2018-03-27T08:00:22.516Z,15804
2018-03-27T08:01:22.488Z,15768
2018-03-27T08:02:22.467Z,15920
2018-03-27T08:03:22.453Z,16248
2018-03-27T08:04:22.426Z,16200
2018-03-27T08:05:22.398Z,15560
2018-03-27T08:06:22.369Z,14652
2018-03-27T08:07:22.352Z,13576
2018-03-27T08:08:21.824Z,12872
2018-03-27T08:09:22.296Z,12700
2018-03-27T08:10:22.272Z,12512
2018-03-27T08:11:22.075Z,12280
2018-03-27T08:12:22.229Z,11952
2018-03-27T08:13:21.972Z,11640
2018-03-27T08:14:21.926Z,11256
2018-03-27T08:15:21.900Z,10976
2018-03-27T08:16:22.130Z,10676
2018-03-27T08:17:21.856Z,10372
2018-03-27T08:18:22.079Z,10228
2018-03-27T08:19:22.053Z,10076
2018-03-27T08:20:21.534Z,9908
2018-03-27T08:21:21.756Z,9760
2018-03-27T08:22:21.977Z,9592
2018-03-27T08:23:22.059Z,9408
2018-03-27T08:24:22.093Z,9332
2018-03-27T08:25:21.911Z,9296
2018-03-27T08:26:21.880Z,9144
2018-03-27T08:27:21.362Z,9124
2018-03-27T08:28:21.829Z,8984
2018-03-27T08:29:21.697Z,9016
2018-03-27T08:30:21.789Z,8944
2018-03-27T08:31:21.757Z,8860
2018-03-27T08:32:21.736Z,8824
2018-03-27T08:33:21.796Z,8784
2018-03-27T08:34:21.430Z,8708
2018-03-27T08:35:21.161Z,8696
2018-03-27T08:36:21.612Z,8708
2018-03-27T08:37:21.614Z,8672
2018-03-27T08:38:21.336Z,8692
2018-03-27T08:39:21.566Z,8756
2018-03-27T08:40:21.534Z,8760
2018-03-27T08:41:21.511Z,8768
2018-03-27T08:42:21.490Z,8788
2018-03-27T08:43:21.500Z,8772
2018-03-27T08:44:21.438Z,8752
2018-03-27T08:45:21.163Z,8732
2018-03-27T08:46:20.887Z,8724
2018-03-27T08:47:21.364Z,8744
2018-03-27T08:48:21.336Z,8764
2018-03-27T08:49:20.816Z,8580
2018-03-27T08:50:21.282Z,8504
2018-03-27T08:51:20.765Z,8608
2018-03-27T08:52:20.747Z,8664
2018-03-27T08:53:20.967Z,8668
2018-03-27T08:54:21.185Z,8640
2018-03-27T08:55:21.159Z,8656
2018-03-27T08:56:21.150Z,8752
2018-03-27T08:57:20.858Z,8824
2018-03-27T08:58:20.851Z,8868
2018-03-27T08:59:20.816Z,8788
2018-03-27T09:00:20.783Z,8784
2018-03-27T09:01:21.792Z,8780
2018-03-27T09:02:21.840Z,8776
2018-03-27T09:03:22.551Z,8760
2018-03-27T09:04:20.774Z,8760
2018-03-27T09:05:20.858Z,8908
2018-03-27T09:06:21.004Z,9040
2018-03-27T09:07:21.024Z,9224
2018-03-27T09:08:20.846Z,9292
2018-03-27T09:09:20.562Z,9336
2018-03-27T09:10:20.890Z,9368
2018-03-27T09:11:20.656Z,9424
2018-03-27T09:12:21.469Z,9352
2018-03-27T09:13:20.462Z,9360
2018-03-27T09:14:21.018Z,9600
2018-03-27T09:15:20.828Z,9808
2018-03-27T09:16:20.689Z,9848
2018-03-27T09:17:20.555Z,9816
2018-03-27T09:18:20.336Z,9724
2018-03-27T09:19:20.562Z,9708
2018-03-27T09:20:20.288Z,9860
2018-03-27T09:21:20.515Z,9932
2018-03-27T09:22:20.244Z,9992
2018-03-27T09:23:20.284Z,10012
2018-03-27T09:24:20.194Z,10104
2018-03-27T09:25:20.212Z,10092
2018-03-27T09:26:20.393Z,10040
2018-03-27T09:27:20.122Z,10156
2018-03-27T09:28:20.364Z,10192
2018-03-27T09:29:20.073Z,10016
2018-03-27T09:30:20.302Z,9572
2018-03-27T09:31:20.569Z,9744
2018-03-27T09:32:20.252Z,10212
2018-03-27T09:33:20.222Z,10384
2018-03-27T09:34:20.532Z,10484
2018-03-27T09:35:20.411Z,10728
2018-03-27T09:36:20.719Z,11144
2018-03-27T09:37:20.507Z,11672
2018-03-27T09:38:20.224Z,12076
2018-03-27T09:39:20.093Z,11968
2018-03-27T09:40:20.044Z,11456
2018-03-27T09:41:20.043Z,11204
2018-03-27T09:42:20.003Z,11556
2018-03-27T09:43:19.730Z,10880
2018-03-27T09:44:19.954Z,10164
2018-03-27T09:45:19.954Z,10324
2018-03-27T09:46:19.905Z,10784
2018-03-27T09:47:19.894Z,11360
2018-03-27T09:48:19.612Z,11688
2018-03-27T09:49:19.835Z,11864
2018-03-27T09:50:19.815Z,12036
2018-03-27T09:51:19.832Z,12292
2018-03-27T09:52:19.519Z,12672
2018-03-27T09:53:19.489Z,12928
2018-03-27T09:54:19.770Z,13280
2018-03-27T09:55:19.248Z,12456
2018-03-27T09:56:19.667Z,11764
2018-03-27T09:57:19.403Z,13104
2018-03-27T09:58:19.660Z,14892
2018-03-27T09:59:19.604Z,15796
2018-03-27T10:00:19.340Z,15440
2018-03-27T10:01:19.566Z,14924
2018-03-27T10:02:21.019Z,14836
2018-03-27T10:03:19.514Z,14800
2018-03-27T10:04:19.252Z,14936
2018-03-27T10:05:19.213Z,15304
2018-03-27T10:06:18.937Z,15340
2018-03-27T10:07:19.163Z,15124
2018-03-27T10:08:19.397Z,14752
2018-03-27T10:09:19.107Z,14856
2018-03-27T10:10:18.600Z,15284
2018-03-27T10:11:19.520Z,15636
2018-03-27T10:12:19.319Z,16072
2018-03-27T10:13:19.316Z,16692
2018-03-27T10:14:19.005Z,17484
2018-03-27T10:15:19.228Z,18184
2018-03-27T10:16:19.257Z,19488
2018-03-27T10:17:18.934Z,20352
2018-03-27T10:18:19.177Z,20608
2018-03-27T10:19:18.897Z,20704
2018-03-27T10:20:19.136Z,21344
2018-03-27T10:21:19.097Z,22144
2018-03-27T10:22:18.884Z,22624
2018-03-27T10:23:19.057Z,22432
2018-03-27T10:24:18.785Z,22560
2018-03-27T10:25:19.007Z,21408
2018-03-27T10:26:18.502Z,19712
2018-03-27T10:27:18.726Z,18848
2018-03-27T10:28:18.945Z,19040
2018-03-27T10:29:18.934Z,19840
2018-03-27T10:30:18.659Z,20832
2018-03-27T10:31:18.639Z,22560
2018-03-27T10:32:18.862Z,25984
2018-03-27T10:33:18.343Z,29824
2018-03-27T10:34:18.582Z,32128
2018-03-27T10:35:18.055Z,32608
2018-03-27T10:36:18.284Z,32288
2018-03-27T10:37:18.515Z,31616
2018-03-27T10:38:18.499Z,30816
2018-03-27T10:39:18.476Z,29920
2018-03-27T10:40:18.460Z,27584
2018-03-27T10:41:17.940Z,24928
2018-03-27T10:42:18.658Z,23264
2018-03-27T10:43:18.390Z,22816
2018-03-27T10:44:18.623Z,22656
2018-03-27T10:45:18.600Z,22144
2018-03-27T10:46:18.629Z,21888
2018-03-27T10:47:18.316Z,21920
2018-03-27T10:48:18.551Z,21568
2018-03-27T10:49:18.524Z,21792
2018-03-27T10:50:18.502Z,21664
2018-03-27T10:51:18.494Z,21504
2018-03-27T10:52:18.471Z,21984
2018-03-27T10:53:18.445Z,23424
2018-03-27T10:54:18.435Z,25504
2018-03-27T10:55:18.174Z,27584
2018-03-27T10:56:18.149Z,29472
2018-03-27T10:57:18.375Z,30208
2018-03-27T10:58:18.180Z,30688
2018-03-27T10:59:18.090Z,30784
2018-03-27T11:00:18.324Z,30240
2018-03-27T11:01:18.054Z,29248
2018-03-27T11:02:18.359Z,28448
2018-03-27T11:03:18.012Z,28128
2018-03-27T11:04:18.248Z,28224
2018-03-27T11:05:18.231Z,28224
2018-03-27T11:06:18.212Z,27904
2018-03-27T11:07:17.945Z,26816
2018-03-27T11:08:17.675Z,25920
2018-03-27T11:09:17.912Z,25952
2018-03-27T11:10:17.903Z,26496
2018-03-27T11:11:17.866Z,27008
2018-03-27T11:12:18.105Z,26944
2018-03-27T11:13:17.584Z,26496
2018-03-27T11:14:17.570Z,26112
2018-03-27T11:15:17.802Z,25600
2018-03-27T11:16:18.037Z,25984
2018-03-27T11:17:18.022Z,25824
2018-03-27T11:18:17.999Z,24384
2018-03-27T11:19:17.982Z,22816
2018-03-27T11:20:17.471Z,21216
2018-03-27T11:21:17.449Z,19712
2018-03-27T11:22:17.926Z,18976
2018-03-27T11:23:17.790Z,19456
2018-03-27T11:24:17.645Z,20096
2018-03-27T11:25:17.625Z,20096
2018-03-27T11:26:17.864Z,19456
2018-03-27T11:27:17.832Z,18592
2018-03-27T11:28:17.580Z,17728
2018-03-27T11:29:17.681Z,16880
2018-03-27T11:30:17.780Z,16200
2018-03-27T11:31:17.773Z,15356
2018-03-27T11:32:17.770Z,14760
2018-03-27T11:33:17.492Z,14540
2018-03-27T11:34:17.458Z,14624
2018-03-27T11:35:17.689Z,15744
2018-03-27T11:36:17.671Z,18976
2018-03-27T11:37:17.416Z,22336
2018-03-27T11:38:17.384Z,25024
2018-03-27T11:39:17.364Z,26304
2018-03-27T11:40:17.602Z,26464
2018-03-27T11:41:17.333Z,25632
2018-03-27T11:42:17.315Z,24352
2018-03-27T11:43:17.298Z,23392
2018-03-27T11:44:17.528Z,23872
2018-03-27T11:45:17.508Z,25440
2018-03-27T11:46:17.255Z,27040
2018-03-27T11:47:17.269Z,28096
2018-03-27T11:48:17.206Z,28544
2018-03-27T11:49:17.184Z,27712
2018-03-27T11:50:17.411Z,26272
2018-03-27T11:51:17.395Z,24896
2018-03-27T11:52:17.130Z,24160
2018-03-27T11:53:16.861Z,24416
2018-03-27T11:54:17.345Z,25568
2018-03-27T11:55:17.082Z,26720
2018-03-27T11:56:17.314Z,27232
2018-03-27T11:57:17.287Z,27712
2018-03-27T11:58:17.275Z,28928
2018-03-27T11:59:17.251Z,28672
2018-03-27T12:00:16.990Z,28672
2018-03-27T12:01:17.219Z,28736
2018-03-27T12:02:17.200Z,28960
2018-03-27T12:03:17.186Z,29472
2018-03-27T12:04:17.165Z,29856
2018-03-27T12:05:16.657Z,29056
2018-03-27T12:06:16.885Z,28000
2018-03-27T12:07:17.116Z,26816
2018-03-27T12:08:17.096Z,26752
2018-03-27T12:09:17.093Z,27264
2018-03-27T12:10:16.569Z,26976
2018-03-27T12:11:16.817Z,25984
2018-03-27T12:12:16.813Z,25280
2018-03-27T12:13:17.016Z,24544
2018-03-27T12:14:17.035Z,23680
2018-03-27T12:15:16.778Z,23008
2018-03-27T12:16:16.722Z,22240
2018-03-27T12:17:16.700Z,21536
2018-03-27T12:18:16.935Z,20992
2018-03-27T12:19:16.666Z,20640
2018-03-27T12:20:16.707Z,20416
2018-03-27T12:21:16.887Z,20512
2018-03-27T12:22:16.420Z,20544
2018-03-27T12:23:16.862Z,20672
2018-03-27T12:24:16.826Z,20896
2018-03-27T12:25:16.567Z,21216
2018-03-27T12:26:16.794Z,21248
2018-03-27T12:27:16.780Z,20928
2018-03-27T12:28:16.512Z,20320
2018-03-27T12:29:16.499Z,19200
2018-03-27T12:30:16.717Z,18144
2018-03-27T12:31:16.456Z,16864
2018-03-27T12:32:16.437Z,15572
2018-03-27T12:33:16.674Z,14392
2018-03-27T12:34:16.645Z,13428
2018-03-27T12:35:16.505Z,12704
2018-03-27T12:36:16.623Z,12184
2018-03-27T12:37:16.599Z,12012
2018-03-27T12:38:16.578Z,12264
2018-03-27T12:39:16.566Z,12708
2018-03-27T12:40:16.540Z,13260
2018-03-27T12:41:16.287Z,14160
2018-03-27T12:42:16.651Z,15628
2018-03-27T12:43:16.608Z,17020
2018-03-27T12:44:16.479Z,18624
2018-03-27T12:45:16.205Z,19776
2018-03-27T12:46:15.919Z,20512
2018-03-27T12:47:16.814Z,21376
2018-03-27T12:48:16.397Z,22432
2018-03-27T12:49:16.382Z,22752
2018-03-27T12:50:16.105Z,22336
2018-03-27T12:51:16.336Z,21952
2018-03-27T12:52:16.320Z,22496
2018-03-27T12:53:16.070Z,22720
2018-03-27T12:54:16.733Z,21568
2018-03-27T12:55:15.832Z,19936
2018-03-27T12:56:16.165Z,18528
2018-03-27T12:57:16.370Z,16716
2018-03-27T12:58:16.231Z,14960
2018-03-27T12:59:16.193Z,13604
2018-03-27T13:00:16.180Z,12900
2018-03-27T13:01:16.150Z,12624
2018-03-27T13:02:15.639Z,12404
2018-03-27T13:03:16.292Z,12524
2018-03-27T13:04:16.144Z,13180
2018-03-27T13:05:16.072Z,14120
2018-03-27T13:06:16.266Z,15252
2018-03-27T13:07:15.803Z,16480
2018-03-27T13:08:16.049Z,18016
2018-03-27T13:09:16.002Z,19840
2018-03-27T13:10:15.982Z,21696
2018-03-27T13:11:15.971Z,23264
2018-03-27T13:12:15.942Z,24192
2018-03-27T13:13:16.123Z,24064
2018-03-27T13:14:15.907Z,24832
2018-03-27T13:15:15.907Z,25888
2018-03-27T13:16:16.039Z,25440
2018-03-27T13:17:15.599Z,24992
2018-03-27T13:18:16.614Z,24768
2018-03-27T13:19:15.812Z,25504
2018-03-27T13:20:16.134Z,26368
2018-03-27T13:21:15.534Z,26432
2018-03-27T13:22:15.256Z,25952
2018-03-27T13:23:15.490Z,24640
2018-03-27T13:24:16.017Z,24032
2018-03-27T13:25:15.518Z,24160
2018-03-27T13:26:15.182Z,24960
2018-03-27T13:27:15.666Z,26080
2018-03-27T13:28:15.643Z,27328
2018-03-27T13:29:15.386Z,28256
2018-03-27T13:30:15.110Z,28224
2018-03-27T13:31:15.343Z,27360
2018-03-27T13:32:15.855Z,26016
2018-03-27T13:33:15.368Z,25248
2018-03-27T13:34:15.550Z,25056
2018-03-27T13:35:15.441Z,25120
2018-03-27T13:36:15.325Z,24960
2018-03-27T13:37:15.497Z,23424
2018-03-27T13:38:15.224Z,20704